Terminal Aerodrome Forecast
Issued by NWS

Home | Current Version | Previous Version | Text Only | Print | Product List | Glossary Off
Versions: 1 2 3 4 5 6 7 8 9 10 11 12 13 14 15 16 17 18 19 20 21 22 23 24 25

000
FTUS43 KLOT 241449 AAA
TAFMDW
TAF AMD
KMDW 241449Z 2415/2518 05008KT P6SM SCT025 BKN070
      TEMPO 2415/2416 BKN022
     FM242000 05010KT P6SM SCT025 BKN100
     FM250400 01016G25KT P6SM SCT030 BKN100
     FM251100 01014G22KT P6SM FEW030=

USA.gov is the U.S. government's official web portal to all federal, state and local government web resources and services.